sensor_id;sensor_type;location;lat;lon;timestamp;pressure;altitude;pressure_sealevel;temperature;humidity
40490;BME280;26196;52.302;10.572;2023-03-21T00:00:17;100779.91;;;14.28;50.05
40490;BME280;26196;52.302;10.572;2023-03-21T00:04:18;100776.38;;;14.29;50.53
40490;BME280;26196;52.302;10.572;2023-03-21T00:08:19;100780.03;;;14.25;50.87
40490;BME280;26196;52.302;10.572;2023-03-21T00:12:20;100779.91;;;14.28;50.74
40490;BME280;26196;52.302;10.572;2023-03-21T00:16:20;100777.25;;;14.30;50.36
40490;BME280;26196;52.302;10.572;2023-03-21T00:20:20;100770.28;;;14.29;50.86
40490;BME280;26196;52.302;10.572;2023-03-21T00:24:22;100773.75;;;14.29;51.02
40490;BME280;26196;52.302;10.572;2023-03-21T00:28:23;100772.94;;;14.27;50.61
40490;BME280;26196;52.302;10.572;2023-03-21T00:32:24;100771.13;;;14.29;50.40
40490;BME280;26196;52.302;10.572;2023-03-21T00:36:25;100768.50;;;14.29;50.46
40490;BME280;26196;52.302;10.572;2023-03-21T00:40:25;100765.00;;;14.29;50.79
40490;BME280;26196;52.302;10.572;2023-03-21T00:44:26;100764.31;;;14.23;50.71
40490;BME280;26196;52.302;10.572;2023-03-21T00:48:26;100756.53;;;14.20;51.05
40490;BME280;26196;52.302;10.572;2023-03-21T00:52:27;100752.91;;;14.23;50.99
40490;BME280;26196;52.302;10.572;2023-03-21T00:56:27;100744.03;;;14.26;50.41
40490;BME280;26196;52.302;10.572;2023-03-21T01:00:27;100738.84;;;14.24;50.98
40490;BME280;26196;52.302;10.572;2023-03-21T01:04:28;100735.25;;;14.27;50.80
40490;BME280;26196;52.302;10.572;2023-03-21T01:08:29;100733.63;;;14.22;51.19
40490;BME280;26196;52.302;10.572;2023-03-21T01:12:30;100730.09;;;14.23;51.26
40490;BME280;26196;52.302;10.572;2023-03-21T01:16:31;100733.50;;;14.26;50.81
40490;BME280;26196;52.302;10.572;2023-03-21T01:20:31;100725.69;;;14.24;51.05
40490;BME280;26196;52.302;10.572;2023-03-21T01:24:31;100720.41;;;14.24;51.26
40490;BME280;26196;52.302;10.572;2023-03-21T01:28:32;100708.16;;;14.23;50.95
40490;BME280;26196;52.302;10.572;2023-03-21T01:32:33;100714.19;;;14.27;50.95
40490;BME280;26196;52.302;10.572;2023-03-21T01:36:33;100711.72;;;14.22;50.85
40490;BME280;26196;52.302;10.572;2023-03-21T01:40:35;100716.13;;;14.21;51.17
40490;BME280;26196;52.302;10.572;2023-03-21T01:44:57;100716.19;;;14.20;51.21
40490;BME280;26196;52.302;10.572;2023-03-21T01:49:19;100710.91;;;14.20;50.81
40490;BME280;26196;52.302;10.572;2023-03-21T01:53:27;100706.50;;;14.20;51.38
40490;BME280;26196;52.302;10.572;2023-03-21T01:57:32;100703.09;;;14.18;50.95
40490;BME280;26196;52.302;10.572;2023-03-21T02:01:38;100704.84;;;14.18;51.47
40490;BME280;26196;52.302;10.572;2023-03-21T02:09:48;100695.25;;;14.17;51.31
40490;BME280;26196;52.302;10.572;2023-03-21T02:13:50;100695.13;;;14.20;51.12
40490;BME280;26196;52.302;10.572;2023-03-21T02:17:58;100687.22;;;14.20;50.89
40490;BME280;26196;52.302;10.572;2023-03-21T03:13:14;100659.41;;;14.13;51.69
40490;BME280;26196;52.302;10.572;2023-03-21T03:22:00;100655.22;;;14.09;51.36
40490;BME280;26196;52.302;10.572;2023-03-21T03:26:07;100650.75;;;14.11;51.18
40490;BME280;26196;52.302;10.572;2023-03-21T03:30:11;100654.16;;;14.13;51.75
40490;BME280;26196;52.302;10.572;2023-03-21T03:34:15;100656.91;;;14.10;51.59
40490;BME280;26196;52.302;10.572;2023-03-21T03:38:20;100654.22;;;14.11;51.57
40490;BME280;26196;52.302;10.572;2023-03-21T03:42:50;100649.81;;;14.12;51.44
40490;BME280;26196;52.302;10.572;2023-03-21T03:46:57;100650.75;;;14.11;51.26
40490;BME280;26196;52.302;10.572;2023-03-21T03:51:11;100642.03;;;14.09;51.47
40490;BME280;26196;52.302;10.572;2023-03-21T03:55:15;100646.38;;;14.10;51.37
40490;BME280;26196;52.302;10.572;2023-03-21T03:59:17;100635.00;;;14.09;51.46
40490;BME280;26196;52.302;10.572;2023-03-21T04:03:18;100645.47;;;14.11;51.60
40490;BME280;26196;52.302;10.572;2023-03-21T04:07:20;100641.97;;;14.10;51.16
40490;BME280;26196;52.302;10.572;2023-03-21T04:11:20;100632.25;;;14.12;51.06
40490;BME280;26196;52.302;10.572;2023-03-21T04:15:21;100637.44;;;14.14;50.91
40490;BME280;26196;52.302;10.572;2023-03-21T04:19:21;100642.63;;;14.15;50.70
40490;BME280;26196;52.302;10.572;2023-03-21T04:23:22;100633.88;;;14.15;50.70
40490;BME280;26196;52.302;10.572;2023-03-21T04:27:22;100637.31;;;14.17;50.89
40490;BME280;26196;52.302;10.572;2023-03-21T04:31:23;100629.69;;;14.11;50.62
40490;BME280;26196;52.302;10.572;2023-03-21T04:35:26;100633.75;;;14.18;51.19
40490;BME280;26196;52.302;10.572;2023-03-21T04:39:27;100629.56;;;14.14;50.86
40490;BME280;26196;52.302;10.572;2023-03-21T04:43:28;100634.69;;;14.17;50.70
40490;BME280;26196;52.302;10.572;2023-03-21T04:47:29;100627.66;;;14.17;50.72
40490;BME280;26196;52.302;10.572;2023-03-21T04:51:29;100625.88;;;14.18;50.43
40490;BME280;26196;52.302;10.572;2023-03-21T04:55:30;100619.69;;;14.19;51.02
40490;BME280;26196;52.302;10.572;2023-03-21T04:59:31;100616.22;;;14.18;51.06
40490;BME280;26196;52.302;10.572;2023-03-21T05:03:31;100622.34;;;14.19;50.36
40490;BME280;26196;52.302;10.572;2023-03-21T05:07:33;100614.56;;;14.16;50.57
40490;BME280;26196;52.302;10.572;2023-03-21T05:11:36;100629.31;;;14.20;51.17
40490;BME280;26196;52.302;10.572;2023-03-21T05:15:36;100622.19;;;14.22;50.56
40490;BME280;26196;52.302;10.572;2023-03-21T05:19:37;100624.88;;;14.20;50.36
40490;BME280;26196;52.302;10.572;2023-03-21T05:23:39;100628.44;;;14.19;51.05
40490;BME280;26196;52.302;10.572;2023-03-21T05:27:39;100629.31;;;14.20;50.75
40490;BME280;26196;52.302;10.572;2023-03-21T05:31:45;100631.94;;;14.20;51.08
40490;BME280;26196;52.302;10.572;2023-03-21T05:35:49;100636.31;;;14.21;51.02
40490;BME280;26196;52.302;10.572;2023-03-21T05:39:50;100630.16;;;14.20;51.06
40490;BME280;26196;52.302;10.572;2023-03-21T05:43:50;100627.66;;;14.17;51.06
40490;BME280;26196;52.302;10.572;2023-03-21T05:47:51;100624.03;;;14.20;51.07
40490;BME280;26196;52.302;10.572;2023-03-21T05:51:51;100624.03;;;14.20;51.05
40490;BME280;26196;52.302;10.572;2023-03-21T05:55:52;100634.56;;;14.20;50.83
40490;BME280;26196;52.302;10.572;2023-03-21T05:59:52;100622.34;;;14.19;51.29
40490;BME280;26196;52.302;10.572;2023-03-21T06:03:52;100625.69;;;14.22;51.01
40490;BME280;26196;52.302;10.572;2023-03-21T06:07:53;100622.19;;;14.22;51.48
40490;BME280;26196;52.302;10.572;2023-03-21T06:11:55;100630.09;;;14.22;51.28
40490;BME280;26196;52.302;10.572;2023-03-21T06:15:56;100630.94;;;14.22;51.06
40490;BME280;26196;52.302;10.572;2023-03-21T06:19:56;100628.41;;;14.21;50.90
40490;BME280;26196;52.302;10.572;2023-03-21T06:23:57;100627.34;;;14.25;51.30
40490;BME280;26196;52.302;10.572;2023-03-21T06:27:57;100627.28;;;14.27;51.29
40490;BME280;26196;52.302;10.572;2023-03-21T06:31:58;100622.88;;;14.27;51.02
40490;BME280;26196;52.302;10.572;2023-03-21T06:35:58;100618.59;;;14.25;51.28
40490;BME280;26196;52.302;10.572;2023-03-21T06:39:58;100623.81;;;14.26;51.38
40490;BME280;26196;52.302;10.572;2023-03-21T06:43:59;100623.91;;;14.23;51.52
40490;BME280;26196;52.302;10.572;2023-03-21T06:47:59;100627.28;;;14.27;51.10
40490;BME280;26196;52.302;10.572;2023-03-21T06:51:59;100624.66;;;14.27;50.99
40490;BME280;26196;52.302;10.572;2023-03-21T06:56:00;100625.38;;;14.30;50.57
40490;BME280;26196;52.302;10.572;2023-03-21T07:00:00;100627.22;;;14.28;50.92
40490;BME280;26196;52.302;10.572;2023-03-21T07:04:01;100623.81;;;14.26;51.66
40490;BME280;26196;52.302;10.572;2023-03-21T07:08:02;100632.47;;;14.28;51.03
40490;BME280;26196;52.302;10.572;2023-03-21T07:12:02;100633.47;;;14.26;51.07
40490;BME280;26196;52.302;10.572;2023-03-21T07:16:03;100632.47;;;14.28;51.40
40490;BME280;26196;52.302;10.572;2023-03-21T07:20:04;100631.63;;;14.28;50.83
40490;BME280;26196;52.302;10.572;2023-03-21T07:24:07;100629.84;;;14.28;51.43
40490;BME280;26196;52.302;10.572;2023-03-21T07:28:07;100626.34;;;14.28;51.47
40490;BME280;26196;52.302;10.572;2023-03-21T07:32:09;100627.13;;;14.31;50.85
40490;BME280;26196;52.302;10.572;2023-03-21T07:36:12;100626.22;;;14.31;51.20
40490;BME280;26196;52.302;10.572;2023-03-21T07:40:16;100631.44;;;14.32;50.90
40490;BME280;26196;52.302;10.572;2023-03-21T07:44:16;100625.38;;;14.30;51.58
40490;BME280;26196;52.302;10.572;2023-03-21T07:48:16;100627.13;;;14.31;50.87
40490;BME280;26196;52.302;10.572;2023-03-21T07:52:18;100619.97;;;14.33;50.78
40490;BME280;26196;52.302;10.572;2023-03-21T07:56:18;100628.81;;;14.32;51.77
40490;BME280;26196;52.302;10.572;2023-03-21T08:00:19;100620.88;;;14.34;51.53
40490;BME280;26196;52.302;10.572;2023-03-21T08:04:22;100627.88;;;14.33;51.70
40490;BME280;26196;52.302;10.572;2023-03-21T08:08:23;100627.13;;;14.31;51.30
40490;BME280;26196;52.302;10.572;2023-03-21T08:12:23;100619.22;;;14.31;51.78
40490;BME280;26196;52.302;10.572;2023-03-21T08:16:24;100619.97;;;14.33;51.82
40490;BME280;26196;52.302;10.572;2023-03-21T08:20:25;100621.72;;;14.34;51.28
40490;BME280;26196;52.302;10.572;2023-03-21T08:24:26;100625.06;;;14.38;51.92
40490;BME280;26196;52.302;10.572;2023-03-21T08:28:27;100628.63;;;14.37;51.52
40490;BME280;26196;52.302;10.572;2023-03-21T08:32:27;100619.84;;;14.36;51.74
40490;BME280;26196;52.302;10.572;2023-03-21T08:36:32;100621.59;;;14.37;51.32
40490;BME280;26196;52.302;10.572;2023-03-21T08:40:36;100611.09;;;14.36;52.06
40490;BME280;26196;52.302;10.572;2023-03-21T08:44:36;100618.03;;;14.38;51.73
40490;BME280;26196;52.302;10.572;2023-03-21T08:48:38;100617.88;;;14.41;51.59
40490;BME280;26196;52.302;10.572;2023-03-21T08:52:39;100620.47;;;14.43;51.59
40490;BME280;26196;52.302;10.572;2023-03-21T08:56:39;100620.53;;;14.41;52.09
40490;BME280;26196;52.302;10.572;2023-03-21T09:00:39;100616.31;;;14.37;51.39
40490;BME280;26196;52.302;10.572;2023-03-21T09:04:40;100616.19;;;14.40;51.53
40490;BME280;26196;52.302;10.572;2023-03-21T09:08:41;100620.53;;;14.41;52.10
40490;BME280;26196;52.302;10.572;2023-03-21T09:12:41;100617.78;;;14.44;51.94
40490;BME280;26196;52.302;10.572;2023-03-21T09:16:41;100623.16;;;14.41;52.07
40490;BME280;26196;52.302;10.572;2023-03-21T09:20:44;100612.63;;;14.41;51.96
40490;BME280;26196;52.302;10.572;2023-03-21T09:24:46;100620.28;;;14.48;52.18
40490;BME280;26196;52.302;10.572;2023-03-21T09:28:47;100617.53;;;14.51;52.19
40490;BME280;26196;52.302;10.572;2023-03-21T09:32:48;100623.81;;;14.47;52.45
40490;BME280;26196;52.302;10.572;2023-03-21T09:36:49;100623.06;;;14.44;51.93
40490;BME280;26196;52.302;10.572;2023-03-21T09:45:45;100619.50;;;14.45;52.01
40490;BME280;26196;52.302;10.572;2023-03-21T09:49:55;100620.28;;;14.48;52.78
40490;BME280;26196;52.302;10.572;2023-03-21T09:54:02;100626.34;;;14.50;52.85
40490;BME280;26196;52.302;10.572;2023-03-21T10:02:40;100618.34;;;14.53;52.49
40490;BME280;26196;52.302;10.572;2023-03-21T10:06:52;100609.50;;;14.54;52.85
40490;BME280;26196;52.302;10.572;2023-03-21T10:10:57;100604.34;;;14.51;52.82
40490;BME280;26196;52.302;10.572;2023-03-21T10:14:59;100600.78;;;14.52;53.09
40490;BME280;26196;52.302;10.572;2023-03-21T10:19:04;100600.72;;;14.55;52.55
40490;BME280;26196;52.302;10.572;2023-03-21T10:23:14;100594.56;;;14.54;52.41
40490;BME280;26196;52.302;10.572;2023-03-21T10:27:15;100598.06;;;14.55;52.64
40490;BME280;26196;52.302;10.572;2023-03-21T10:31:22;100601.38;;;14.60;53.21
40490;BME280;26196;52.302;10.572;2023-03-21T10:35:25;100593.47;;;14.60;53.16
40490;BME280;26196;52.302;10.572;2023-03-21T10:39:37;100591.75;;;14.59;52.68
40490;BME280;26196;52.302;10.572;2023-03-21T10:43:40;100589.09;;;14.59;53.28
40490;BME280;26196;52.302;10.572;2023-03-21T10:47:41;100593.38;;;14.61;52.95
40490;BME280;26196;52.302;10.572;2023-03-21T10:51:41;100589.81;;;14.62;53.21
40490;BME280;26196;52.302;10.572;2023-03-21T10:55:42;100569.88;;;14.57;52.28
40490;BME280;26196;52.302;10.572;2023-03-21T10:59:48;100569.63;;;14.63;53.45
40490;BME280;26196;52.302;10.572;2023-03-21T11:03:55;100565.91;;;14.67;52.85
40490;BME280;26196;52.302;10.572;2023-03-21T11:08:06;100572.03;;;14.68;53.03
40490;BME280;26196;52.302;10.572;2023-03-21T11:12:13;100564.09;;;14.69;53.09
40490;BME280;26196;52.302;10.572;2023-03-21T11:16:30;100556.38;;;14.64;53.51
40490;BME280;26196;52.302;10.572;2023-03-21T11:20:32;100555.38;;;14.67;53.33
40490;BME280;26196;52.302;10.572;2023-03-21T11:24:34;100553.50;;;14.71;53.66
40490;BME280;26196;52.302;10.572;2023-03-21T11:28:37;100562.25;;;14.71;53.31
40490;BME280;26196;52.302;10.572;2023-03-21T11:32:38;100554.19;;;14.74;53.34
40490;BME280;26196;52.302;10.572;2023-03-21T11:36:39;100550.63;;;14.75;53.31
40490;BME280;26196;52.302;10.572;2023-03-21T11:40:52;100544.47;;;14.76;52.50
40490;BME280;26196;52.302;10.572;2023-03-21T11:45:00;100541.81;;;14.76;53.57
40490;BME280;26196;52.302;10.572;2023-03-21T11:49:01;100540.09;;;14.75;53.83
40490;BME280;26196;52.302;10.572;2023-03-21T11:57:47;100539.91;;;14.80;53.65
40490;BME280;26196;52.302;10.572;2023-03-21T12:06:25;100532.72;;;14.83;53.73
40490;BME280;26196;52.302;10.572;2023-03-21T12:14:56;100529.94;;;14.86;53.23
40490;BME280;26196;52.302;10.572;2023-03-21T12:23:42;100514.13;;;14.86;53.73
40490;BME280;26196;52.302;10.572;2023-03-21T12:36:39;100509.53;;;14.92;54.15
40490;BME280;26196;52.302;10.572;2023-03-21T12:40:53;100500.69;;;14.93;54.04
40490;BME280;26196;52.302;10.572;2023-03-21T12:45:08;100497.09;;;14.94;54.10
40490;BME280;26196;52.302;10.572;2023-03-21T12:49:33;100492.63;;;14.96;54.19
40490;BME280;26196;52.302;10.572;2023-03-21T12:53:52;100485.66;;;14.95;54.33
40490;BME280;26196;52.302;10.572;2023-03-21T12:58:03;100481.19;;;14.97;54.03
40490;BME280;26196;52.302;10.572;2023-03-21T13:02:32;100483.81;;;14.97;53.67
40490;BME280;26196;52.302;10.572;2023-03-21T13:06:33;100480.25;;;14.98;54.31
40490;BME280;26196;52.302;10.572;2023-03-21T13:10:35;100473.13;;;15.00;54.25
40490;BME280;26196;52.302;10.572;2023-03-21T13:14:43;100463.44;;;15.00;54.79
40490;BME280;26196;52.302;10.572;2023-03-21T13:18:53;100467.56;;;15.06;55.11
40490;BME280;26196;52.302;10.572;2023-03-21T13:22:56;100451.75;;;15.06;54.80
40490;BME280;26196;52.302;10.572;2023-03-21T13:27:05;100453.16;;;15.13;54.38
40490;BME280;26196;52.302;10.572;2023-03-21T13:31:32;100457.34;;;15.17;55.01
40490;BME280;26196;52.302;10.572;2023-03-21T13:35:39;100452.09;;;15.17;55.23
40490;BME280;26196;52.302;10.572;2023-03-21T13:39:43;100452.88;;;15.19;55.23
40490;BME280;26196;52.302;10.572;2023-03-21T13:44:05;100444.06;;;15.20;55.52
40490;BME280;26196;52.302;10.572;2023-03-21T13:48:26;100444.91;;;15.21;55.06
40490;BME280;26196;52.302;10.572;2023-03-21T13:52:27;100440.47;;;15.21;55.16
40490;BME280;26196;52.302;10.572;2023-03-21T13:56:28;100439.53;;;15.22;55.19
40490;BME280;26196;52.302;10.572;2023-03-21T14:00:30;100435.06;;;15.24;55.38
40490;BME280;26196;52.302;10.572;2023-03-21T14:04:30;100427.94;;;15.26;55.24
40490;BME280;26196;52.302;10.572;2023-03-21T14:08:34;100432.34;;;15.26;55.00
40490;BME280;26196;52.302;10.572;2023-03-21T14:12:41;100427.94;;;15.26;54.99
40490;BME280;26196;52.302;10.572;2023-03-21T14:16:43;100424.22;;;15.30;54.82
40490;BME280;26196;52.302;10.572;2023-03-21T14:20:44;100423.34;;;15.30;54.85
40490;BME280;26196;52.302;10.572;2023-03-21T14:25:11;100422.34;;;15.32;55.12
40490;BME280;26196;52.302;10.572;2023-03-21T14:29:34;100412.59;;;15.35;54.89
40490;BME280;26196;52.302;10.572;2023-03-21T14:33:41;100413.53;;;15.34;54.55
40490;BME280;26196;52.302;10.572;2023-03-21T14:37:46;100406.41;;;15.36;54.96
40490;BME280;26196;52.302;10.572;2023-03-21T14:42:10;100392.44;;;15.34;54.84
40490;BME280;26196;52.302;10.572;2023-03-21T14:46:11;100407.16;;;15.38;55.03
40490;BME280;26196;52.302;10.572;2023-03-21T14:50:12;100403.66;;;15.37;54.86
40490;BME280;26196;52.302;10.572;2023-03-21T14:54:14;100391.97;;;15.43;55.03
40490;BME280;26196;52.302;10.572;2023-03-21T14:58:16;100396.38;;;15.42;54.80
40490;BME280;26196;52.302;10.572;2023-03-21T15:02:27;100394.69;;;15.41;54.89
40490;BME280;26196;52.302;10.572;2023-03-21T15:06:28;100392.84;;;15.43;55.19
40490;BME280;26196;52.302;10.572;2023-03-21T15:10:30;100390.13;;;15.45;55.21
40490;BME280;26196;52.302;10.572;2023-03-21T15:14:32;100365.91;;;15.37;55.07
40490;BME280;26196;52.302;10.572;2023-03-21T15:18:36;100382.88;;;15.48;54.67
40490;BME280;26196;52.302;10.572;2023-03-21T15:22:39;100378.63;;;15.46;54.93
40490;BME280;26196;52.302;10.572;2023-03-21T15:26:45;100378.56;;;15.47;54.88
40490;BME280;26196;52.302;10.572;2023-03-21T15:30:50;100372.22;;;15.51;54.95
40490;BME280;26196;52.302;10.572;2023-03-21T15:34:53;100368.63;;;15.52;54.74
40490;BME280;26196;52.302;10.572;2023-03-21T15:38:55;100373.13;;;15.50;54.72
40490;BME280;26196;52.302;10.572;2023-03-21T15:43:22;100370.41;;;15.52;54.86
40490;BME280;26196;52.302;10.572;2023-03-21T15:48:10;100369.31;;;15.56;54.86
40490;BME280;26196;52.302;10.572;2023-03-21T15:51:50;100369.31;;;15.56;54.67
40490;BME280;26196;52.302;10.572;2023-03-21T15:56:01;100360.56;;;15.56;54.17
40490;BME280;26196;52.302;10.572;2023-03-21T16:04:11;100354.50;;;15.53;54.55
40490;BME280;26196;52.302;10.572;2023-03-21T16:08:21;100354.44;;;15.55;55.31
40490;BME280;26196;52.302;10.572;2023-03-21T16:12:26;100345.66;;;15.54;54.81
40490;BME280;26196;52.302;10.572;2023-03-21T16:16:28;100350.84;;;15.56;54.47
40490;BME280;26196;52.302;10.572;2023-03-21T16:20:38;100346.44;;;15.57;54.40
40490;BME280;26196;52.302;10.572;2023-03-21T16:24:39;100328.06;;;15.55;54.72
40490;BME280;26196;52.302;10.572;2023-03-21T16:28:40;100338.44;;;15.58;54.41
40490;BME280;26196;52.302;10.572;2023-03-21T16:32:40;100339.22;;;15.60;54.35
40490;BME280;26196;52.302;10.572;2023-03-21T16:36:41;100326.19;;;15.57;54.35
40490;BME280;26196;52.302;10.572;2023-03-21T16:40:43;100319.91;;;15.60;54.27
40490;BME280;26196;52.302;10.572;2023-03-21T16:44:43;100311.06;;;15.61;54.25
40490;BME280;26196;52.302;10.572;2023-03-21T16:48:46;100311.91;;;15.61;54.24
40490;BME280;26196;52.302;10.572;2023-03-21T16:52:47;100311.91;;;15.61;54.44
40490;BME280;26196;52.302;10.572;2023-03-21T16:56:54;100296.06;;;15.61;54.13
40490;BME280;26196;52.302;10.572;2023-03-21T17:00:54;100300.59;;;15.59;54.09
40490;BME280;26196;52.302;10.572;2023-03-21T17:04:55;100298.72;;;15.61;53.67
40490;BME280;26196;52.302;10.572;2023-03-21T17:08:56;100287.41;;;15.59;54.06
40490;BME280;26196;52.302;10.572;2023-03-21T17:12:57;100290.78;;;15.61;54.27
40490;BME280;26196;52.302;10.572;2023-03-21T17:16:58;100283.81;;;15.60;53.82
40490;BME280;26196;52.302;10.572;2023-03-21T17:20:58;100284.66;;;15.61;54.16
40490;BME280;26196;52.302;10.572;2023-03-21T17:24:59;100281.13;;;15.62;54.08
40490;BME280;26196;52.302;10.572;2023-03-21T17:29:02;100274.06;;;15.62;54.11
40490;BME280;26196;52.302;10.572;2023-03-21T17:33:03;100285.53;;;15.61;54.10
40490;BME280;26196;52.302;10.572;2023-03-21T17:37:03;100287.25;;;15.62;54.17
40490;BME280;26196;52.302;10.572;2023-03-21T17:41:04;100293.44;;;15.61;54.08
40490;BME280;26196;52.302;10.572;2023-03-21T17:45:04;100294.22;;;15.63;54.16
40490;BME280;26196;52.302;10.572;2023-03-21T17:49:05;100289.88;;;15.62;54.18
40490;BME280;26196;52.302;10.572;2023-03-21T17:53:06;100281.97;;;15.62;54.21
40490;BME280;26196;52.302;10.572;2023-03-21T17:57:09;100288.25;;;15.60;54.09
40490;BME280;26196;52.302;10.572;2023-03-21T18:01:10;100301.34;;;15.61;54.40
40490;BME280;26196;52.302;10.572;2023-03-21T18:05:10;100309.25;;;15.61;54.05
40490;BME280;26196;52.302;10.572;2023-03-21T18:09:11;100294.22;;;15.63;54.00
40490;BME280;26196;52.302;10.572;2023-03-21T18:13:11;100309.19;;;15.63;53.98
40490;BME280;26196;52.302;10.572;2023-03-21T18:17:11;100304.09;;;15.60;53.79
40490;BME280;26196;52.302;10.572;2023-03-21T18:21:16;100302.13;;;15.63;54.23
40490;BME280;26196;52.302;10.572;2023-03-21T18:25:16;100298.47;;;15.66;54.11
40490;BME280;26196;52.302;10.572;2023-03-21T18:29:17;100298.66;;;15.63;54.30
40490;BME280;26196;52.302;10.572;2023-03-21T18:33:19;100292.34;;;15.65;53.62
40490;BME280;26196;52.302;10.572;2023-03-21T18:37:19;100292.19;;;15.68;53.79
40490;BME280;26196;52.302;10.572;2023-03-21T18:41:20;100306.31;;;15.67;54.04
40490;BME280;26196;52.302;10.572;2023-03-21T18:45:22;100294.31;;;15.62;54.38
40490;BME280;26196;52.302;10.572;2023-03-21T18:49:24;100293.38;;;15.63;54.47
40490;BME280;26196;52.302;10.572;2023-03-21T18:53:24;100281.97;;;15.62;54.41
40490;BME280;26196;52.302;10.572;2023-03-21T18:57:25;100291.69;;;15.62;54.44
40490;BME280;26196;52.302;10.572;2023-03-21T19:01:25;100301.28;;;15.63;54.63
40490;BME280;26196;52.302;10.572;2023-03-21T19:05:26;100296.84;;;15.63;54.60
40490;BME280;26196;52.302;10.572;2023-03-21T19:09:26;100296.78;;;15.65;54.54
40490;BME280;26196;52.302;10.572;2023-03-21T19:13:27;100280.84;;;15.66;54.70
40490;BME280;26196;52.302;10.572;2023-03-21T19:17:27;100284.28;;;15.68;54.61
40490;BME280;26196;52.302;10.572;2023-03-21T19:21:27;100284.28;;;15.68;54.43
40490;BME280;26196;52.302;10.572;2023-03-21T19:25:28;100291.41;;;15.66;54.50
40490;BME280;26196;52.302;10.572;2023-03-21T19:29:28;100292.34;;;15.65;54.46
40490;BME280;26196;52.302;10.572;2023-03-21T19:33:30;100299.22;;;15.69;54.25
40490;BME280;26196;52.302;10.572;2023-03-21T19:37:30;100291.34;;;15.68;54.02
40490;BME280;26196;52.302;10.572;2023-03-21T19:41:31;100292.16;;;15.70;53.88
40490;BME280;26196;52.302;10.572;2023-03-21T19:45:32;100296.59;;;15.69;54.05
40490;BME280;26196;52.302;10.572;2023-03-21T19:49:32;100300.91;;;15.70;53.72
40490;BME280;26196;52.302;10.572;2023-03-21T19:53:33;100303.56;;;15.70;53.77
40490;BME280;26196;52.302;10.572;2023-03-21T19:57:33;100304.50;;;15.69;53.75
40490;BME280;26196;52.302;10.572;2023-03-21T20:01:33;100306.97;;;15.72;53.72
40490;BME280;26196;52.302;10.572;2023-03-21T20:05:34;100299.06;;;15.72;53.61
40490;BME280;26196;52.302;10.572;2023-03-21T20:09:35;100314.06;;;15.72;53.52
40490;BME280;26196;52.302;10.572;2023-03-21T20:13:35;100299.31;;;15.66;53.38
40490;BME280;26196;52.302;10.572;2023-03-21T20:17:36;100296.50;;;15.71;53.62
40490;BME280;26196;52.302;10.572;2023-03-21T20:21:37;100300.91;;;15.70;53.66
40490;BME280;26196;52.302;10.572;2023-03-21T20:25:39;100300.91;;;15.70;53.60
40490;BME280;26196;52.302;10.572;2023-03-21T20:29:40;100304.41;;;15.71;53.67
40490;BME280;26196;52.302;10.572;2023-03-21T20:33:41;100296.31;;;15.74;53.67
40490;BME280;26196;52.302;10.572;2023-03-21T20:37:42;100296.41;;;15.72;53.70
40490;BME280;26196;52.302;10.572;2023-03-21T20:41:46;100286.78;;;15.71;53.59
40490;BME280;26196;52.302;10.572;2023-03-21T20:45:47;100287.66;;;15.72;53.48
40490;BME280;26196;52.302;10.572;2023-03-21T20:49:47;100284.25;;;15.70;53.86
40490;BME280;26196;52.302;10.572;2023-03-21T20:53:48;100286.78;;;15.71;53.75
40490;BME280;26196;52.302;10.572;2023-03-21T20:57:49;100281.63;;;15.68;54.10
40490;BME280;26196;52.302;10.572;2023-03-21T21:01:50;100291.31;;;15.69;53.77
40490;BME280;26196;52.302;10.572;2023-03-21T21:05:50;100292.94;;;15.72;53.43
40490;BME280;26196;52.302;10.572;2023-03-21T21:09:52;100293.69;;;15.74;53.26
40490;BME280;26196;52.302;10.572;2023-03-21T21:13:52;100293.78;;;15.72;53.36
40490;BME280;26196;52.302;10.572;2023-03-21T21:17:54;100285.09;;;15.70;53.47
40490;BME280;26196;52.302;10.572;2023-03-21T21:21:58;100280.75;;;15.69;53.22
40490;BME280;26196;52.302;10.572;2023-03-21T21:25:59;100279.81;;;15.70;53.13
40490;BME280;26196;52.302;10.572;2023-03-21T21:30:00;100277.25;;;15.69;53.30
40490;BME280;26196;52.302;10.572;2023-03-21T21:34:01;100267.56;;;15.69;53.15
40490;BME280;26196;52.302;10.572;2023-03-21T21:38:04;100266.75;;;15.67;53.21
40490;BME280;26196;52.302;10.572;2023-03-21T21:42:05;100271.97;;;15.69;53.14
40490;BME280;26196;52.302;10.572;2023-03-21T21:46:05;100259.69;;;15.68;53.12
40490;BME280;26196;52.302;10.572;2023-03-21T21:50:07;100249.94;;;15.70;52.88
40490;BME280;26196;52.302;10.572;2023-03-21T21:54:07;100242.16;;;15.67;53.14
40490;BME280;26196;52.302;10.572;2023-03-21T21:58:08;100247.44;;;15.67;52.93
40490;BME280;26196;52.302;10.572;2023-03-21T22:02:12;100243.84;;;15.68;52.85
40490;BME280;26196;52.302;10.572;2023-03-21T22:06:13;100236.00;;;15.66;52.78
40490;BME280;26196;52.302;10.572;2023-03-21T22:10:14;100250.06;;;15.67;52.87
40490;BME280;26196;52.302;10.572;2023-03-21T22:14:14;100244.00;;;15.65;52.82
40490;BME280;26196;52.302;10.572;2023-03-21T22:18:15;100246.56;;;15.66;52.65
40490;BME280;26196;52.302;10.572;2023-03-21T22:22:15;100248.44;;;15.64;52.73
40490;BME280;26196;52.302;10.572;2023-03-21T22:26:15;100237.91;;;15.64;52.49
40490;BME280;26196;52.302;10.572;2023-03-21T22:30:16;100235.50;;;15.60;52.39
40490;BME280;26196;52.302;10.572;2023-03-21T22:34:17;100236.56;;;15.56;52.40